Terminal Aerodrome Forecast
Issued by NWS Northern Indiana

Home | Current Version | Previous Version | Graphics & Text | Print | Product List | Glossary On
Versions: 1 2 3 4 5 6 7 8 9 10 11 12 13
000
FTUS43 KIWX 250500
TAFFWA
TAF
KFWA 250522Z 2506/2606 27012KT P6SM FEW030
     FM251000 32005KT P6SM SKC
     FM251500 06005KT P6SM BKN100=

USA.gov is the U.S. government's official web portal to all federal, state and local government web resources and services.